createdAt,value
2018-03-23T00:00:56.007Z,10.2
2018-03-23T00:02:02.147Z,10.2
2018-03-23T00:03:07.160Z,10.2
2018-03-23T00:04:09.601Z,10.1
2018-03-23T00:05:12.087Z,10
2018-03-23T00:06:14.518Z,10
2018-03-23T00:07:16.974Z,10
2018-03-23T00:08:19.575Z,9.9
2018-03-23T00:09:22.186Z,10.1
2018-03-23T00:10:24.705Z,10
2018-03-23T00:11:27.182Z,10
2018-03-23T00:12:29.630Z,10
2018-03-23T00:13:37.728Z,9.9
2018-03-23T00:14:40.260Z,10
2018-03-23T00:15:42.702Z,9.9
2018-03-23T00:16:45.219Z,10.1
2018-03-23T00:17:47.669Z,10.1
2018-03-23T00:18:50.119Z,9.8
2018-03-23T00:19:52.578Z,9.8
2018-03-23T00:20:55.091Z,9.8
2018-03-23T00:21:57.530Z,9.7
2018-03-23T00:22:59.988Z,9.6
2018-03-23T00:24:02.498Z,9.8
2018-03-23T00:25:04.979Z,9.8
2018-03-23T00:26:07.548Z,9.8
2018-03-23T00:27:10.014Z,9.7
2018-03-23T00:28:12.516Z,9.6
2018-03-23T00:29:14.965Z,9.6
2018-03-23T00:30:17.501Z,9.6
2018-03-23T00:31:20.018Z,9.6
2018-03-23T00:32:22.517Z,9.7
2018-03-23T00:33:30.432Z,9.8
2018-03-23T00:34:32.878Z,9.8
2018-03-23T00:35:39.583Z,9.8
2018-03-23T00:36:42.038Z,9.6
2018-03-23T00:37:44.538Z,9.5
2018-03-23T00:38:47.021Z,9.4
2018-03-23T00:39:49.513Z,9.6
2018-03-23T00:40:51.982Z,9.6
2018-03-23T00:41:54.385Z,9.3
2018-03-23T00:42:57.032Z,9.6
2018-03-23T00:43:59.504Z,9.4
2018-03-23T00:45:02.125Z,9.3
2018-03-23T00:46:04.636Z,9.4
2018-03-23T00:47:07.289Z,9.3
2018-03-23T00:48:09.811Z,9.4
2018-03-23T00:49:12.275Z,9.3
2018-03-23T00:50:14.757Z,9.3
2018-03-23T00:51:17.349Z,9.2
2018-03-23T00:52:20.225Z,9
2018-03-23T00:53:22.733Z,9.1
2018-03-23T00:54:25.164Z,9.1
2018-03-23T00:55:27.777Z,9.1
2018-03-23T00:56:30.325Z,9.5
2018-03-23T00:57:32.757Z,9.3
2018-03-23T00:58:35.245Z,9.3
2018-03-23T00:59:37.795Z,9.1
2018-03-23T01:00:40.356Z,9.3
2018-03-23T01:01:42.840Z,9.5
2018-03-23T01:02:45.334Z,9.2
2018-03-23T01:03:47.823Z,9.2
2018-03-23T01:04:50.258Z,9.2
2018-03-23T01:05:52.698Z,9.3
2018-03-23T01:06:55.674Z,9.2
2018-03-23T01:07:58.372Z,9.1
2018-03-23T01:09:00.930Z,9
2018-03-23T01:10:03.394Z,9
2018-03-23T01:11:05.911Z,8.9
2018-03-23T01:12:08.814Z,8.9
2018-03-23T01:13:17.016Z,8.8
2018-03-23T01:14:19.446Z,8.9
2018-03-23T01:15:21.912Z,8.8
2018-03-23T01:16:24.395Z,9.1
2018-03-23T01:17:27.248Z,8.9
2018-03-23T01:18:29.719Z,8.9
2018-03-23T01:19:32.182Z,9
2018-03-23T01:20:34.667Z,9
2018-03-23T01:21:37.144Z,8.9
2018-03-23T01:22:43.451Z,8.9
2018-03-23T01:23:46.100Z,8.9
2018-03-23T01:24:48.537Z,8.7
2018-03-23T01:25:50.972Z,8.8
2018-03-23T01:26:53.375Z,8.8
2018-03-23T01:27:55.898Z,8.9
2018-03-23T01:28:58.354Z,8.8
2018-03-23T01:30:00.867Z,8.8
2018-03-23T01:31:03.361Z,8.7
2018-03-23T01:32:05.846Z,8.6
2018-03-23T01:33:08.334Z,8.9
2018-03-23T01:34:10.748Z,8.6
2018-03-23T01:35:13.158Z,8.6
2018-03-23T01:36:15.664Z,8.5
2018-03-23T01:37:18.106Z,8.6
2018-03-23T01:38:20.573Z,8.6
2018-03-23T01:39:22.996Z,8.6
2018-03-23T01:40:25.529Z,8.6
2018-03-23T01:41:27.986Z,8.5
2018-03-23T01:42:32.049Z,8.5
2018-03-23T01:43:34.470Z,8.5
2018-03-23T01:44:36.963Z,8.5
2018-03-23T01:45:39.420Z,8.4
2018-03-23T01:46:41.910Z,8.6
2018-03-23T01:47:44.348Z,8.5
2018-03-23T01:48:46.866Z,8.5
2018-03-23T01:49:49.267Z,8.6
2018-03-23T01:50:51.722Z,8.5
2018-03-23T01:51:54.667Z,8.4
2018-03-23T01:52:57.096Z,8.5
2018-03-23T01:53:59.609Z,8.3
2018-03-23T01:55:02.026Z,8.4
2018-03-23T01:56:04.527Z,8.3
2018-03-23T01:57:07.049Z,8.3
2018-03-23T01:58:09.480Z,8.2
2018-03-23T01:59:11.884Z,8.3
2018-03-23T02:00:14.347Z,8.5
2018-03-23T02:01:16.867Z,8.3
2018-03-23T02:02:19.323Z,8.3
2018-03-23T02:03:21.775Z,8.3
2018-03-23T02:04:24.297Z,8.4
2018-03-23T02:05:26.871Z,8.3
2018-03-23T02:06:29.346Z,8.1
2018-03-23T02:07:31.734Z,8.1
2018-03-23T02:08:34.265Z,8.2
2018-03-23T02:09:36.767Z,8.3
2018-03-23T02:10:39.181Z,8.1
2018-03-23T02:11:41.590Z,8
2018-03-23T02:12:44.018Z,8.1
2018-03-23T02:13:46.591Z,8.4
2018-03-23T02:14:49.077Z,8.1
2018-03-23T02:15:51.461Z,8
2018-03-23T02:16:53.937Z,8
2018-03-23T02:17:56.416Z,8.1
2018-03-23T02:18:58.840Z,7.8
2018-03-23T02:20:01.363Z,8
2018-03-23T02:21:03.802Z,8
2018-03-23T02:22:06.266Z,8.2
2018-03-23T02:23:08.700Z,8.2
2018-03-23T02:24:11.137Z,8.1
2018-03-23T02:25:13.538Z,8
2018-03-23T02:26:16.045Z,8.1
2018-03-23T02:27:18.442Z,8
2018-03-23T02:28:23.601Z,8
2018-03-23T02:29:26.125Z,8
2018-03-23T02:30:28.576Z,8
2018-03-23T02:31:31.136Z,8.1
2018-03-23T02:32:33.657Z,8.1
2018-03-23T02:33:36.150Z,8
2018-03-23T02:34:38.586Z,8.1
2018-03-23T02:35:41.354Z,8
2018-03-23T02:36:43.778Z,8
2018-03-23T02:37:46.495Z,7.9
2018-03-23T02:38:48.952Z,7.9
2018-03-23T02:39:51.429Z,7.9
2018-03-23T02:40:53.939Z,7.7
2018-03-23T02:41:56.477Z,7.8
2018-03-23T02:42:58.959Z,7.8
2018-03-23T02:44:01.423Z,7.9
2018-03-23T02:45:03.955Z,7.9
2018-03-23T02:46:06.433Z,7.8
2018-03-23T02:47:08.917Z,7.8
2018-03-23T02:48:11.376Z,7.9
2018-03-23T02:49:13.835Z,8
2018-03-23T02:50:16.342Z,7.9
2018-03-23T02:51:18.776Z,7.9
2018-03-23T02:52:21.237Z,7.8
2018-03-23T02:53:23.678Z,7.9
2018-03-23T02:54:26.192Z,7.7
2018-03-23T02:55:28.703Z,7.8
2018-03-23T02:56:31.127Z,7.8
2018-03-23T02:57:33.602Z,7.8
2018-03-23T02:58:37.891Z,7.8
2018-03-23T02:59:40.623Z,7.5
2018-03-23T03:00:43.072Z,7.6
2018-03-23T03:01:45.534Z,7.7
2018-03-23T03:02:48.305Z,7.6
2018-03-23T03:03:50.713Z,7.7
2018-03-23T03:04:53.187Z,7.7
2018-03-23T03:05:55.727Z,7.8
2018-03-23T03:06:58.223Z,7.8
2018-03-23T03:08:00.676Z,7.7
2018-03-23T03:09:03.201Z,7.7
2018-03-23T03:10:05.683Z,7.6
2018-03-23T03:11:08.133Z,7.6
2018-03-23T03:12:10.604Z,7.5
2018-03-23T03:13:13.251Z,7.4
2018-03-23T03:14:15.710Z,7.4
2018-03-23T03:15:18.208Z,7.4
2018-03-23T03:16:24.648Z,7.3
2018-03-23T03:17:27.111Z,7.5
2018-03-23T22:38:34.401Z,18
2018-03-23T22:39:36.965Z,18
2018-03-23T22:40:39.474Z,17.8
2018-03-23T22:41:41.993Z,17.8
2018-03-23T22:42:44.577Z,18
2018-03-23T22:43:47.108Z,17.9
2018-03-23T22:44:49.618Z,17.9
2018-03-23T22:45:52.241Z,16.6
2018-03-23T22:46:55.098Z,15.2
2018-03-23T22:47:57.703Z,14.5
2018-03-23T22:49:00.375Z,14
2018-03-23T22:50:03.231Z,13.6
2018-03-23T22:51:05.829Z,13.5
2018-03-23T22:52:08.345Z,13.1
2018-03-23T22:53:11.273Z,13.2
2018-03-23T22:54:14.027Z,12.9
2018-03-23T22:55:16.608Z,13
2018-03-23T22:56:19.125Z,12.9
2018-03-23T22:57:21.727Z,12.7
2018-03-23T22:58:24.437Z,12.7
2018-03-23T22:59:26.912Z,12.6
2018-03-23T23:00:29.490Z,12.5
2018-03-23T23:01:32.116Z,12.3
2018-03-23T23:02:35.651Z,12.1
2018-03-23T23:03:38.446Z,12.1
2018-03-23T23:04:40.974Z,12.1
2018-03-23T23:05:43.509Z,11.9
2018-03-23T23:06:46.008Z,11.8
2018-03-23T23:07:48.461Z,11.8
2018-03-23T23:08:50.964Z,12
2018-03-23T23:09:53.487Z,11.9
2018-03-23T23:10:56.235Z,11.8
2018-03-23T23:11:58.805Z,11.6
2018-03-23T23:13:01.929Z,11.5
2018-03-23T23:14:04.811Z,11.4
2018-03-23T23:15:07.693Z,11.4
2018-03-23T23:16:10.387Z,11.1
2018-03-23T23:17:12.900Z,11.3
2018-03-23T23:18:16.690Z,11.3
2018-03-23T23:19:19.617Z,11.2
2018-03-23T23:20:22.336Z,11
2018-03-23T23:21:27.025Z,11
2018-03-23T23:22:29.779Z,10.9
2018-03-23T23:23:32.342Z,11.1
2018-03-23T23:24:34.979Z,11
2018-03-23T23:25:38.536Z,11
2018-03-23T23:26:46.234Z,11.1
2018-03-23T23:27:49.750Z,11
2018-03-23T23:28:52.343Z,10.9
2018-03-23T23:29:54.914Z,10.8
2018-03-23T23:30:57.535Z,10.7
2018-03-23T23:32:00.035Z,10.4
2018-03-23T23:33:02.765Z,10.6
2018-03-23T23:34:05.422Z,10.7
2018-03-23T23:35:08.048Z,10.7
2018-03-23T23:36:10.584Z,10.8
2018-03-23T23:37:13.246Z,10.8
2018-03-23T23:38:16.281Z,10.8
2018-03-23T23:39:18.728Z,10.8
2018-03-23T23:40:21.304Z,10.7
2018-03-23T23:41:24.784Z,10.5
2018-03-23T23:42:27.881Z,10.4
2018-03-23T23:43:30.377Z,10.4
2018-03-23T23:44:39.709Z,10.4
2018-03-23T23:45:42.224Z,10.4
2018-03-23T23:46:44.795Z,10.5
2018-03-23T23:47:51.470Z,10.4
2018-03-23T23:48:54.319Z,10.4
2018-03-23T23:49:56.800Z,10.4
2018-03-23T23:50:59.328Z,10.5
2018-03-23T23:52:02.579Z,10.5
2018-03-23T23:53:05.190Z,10.5
2018-03-23T23:54:07.687Z,10.4
2018-03-23T23:55:10.256Z,10.4
2018-03-23T23:56:12.806Z,10.3
2018-03-23T23:57:15.265Z,10.3
2018-03-23T23:58:17.839Z,10.3
2018-03-23T23:59:20.322Z,10.2
